Time;durP1;ratioP1;P1;durP2;ratioP2;P2;SDS_P1;SDS_P2;PMS_P1;PMS_P2;Temp;Humidity;BMP_temperature;BMP_pressure;BME280_temperature;BME280_humidity;BME280_pressure;Samples;Min_cycle;Max_cycle;Signal;HPM_P1;HPM_P2
2022/11/24 00:01:21;;;;;;;36.05;15.08;;;;;;;0.96;86.72;97618.01;1716801;83;25449;-73
2022/11/24 00:03:55;;;;;;;39.23;17.40;;;;;;;0.93;86.84;97611.81;1716880;83;25649;-73
2022/11/24 00:06:23;;;;;;;34.43;17.15;;;;;;;0.96;87.15;97620.70;1716597;83;25622;-72
2022/11/24 00:08:50;;;;;;;35.08;16.90;;;;;;;1.06;87.35;97624.45;1716576;83;27499;-72
2022/11/24 00:11:21;;;;;;;31.23;14.23;;;;;;;1.13;86.98;97614.16;1716334;83;27231;-74
2022/11/24 00:13:47;;;;;;;35.90;16.32;;;;;;;1.14;86.49;97619.80;1717064;83;25491;-74
2022/11/24 00:16:24;;;;;;;37.03;16.30;;;;;;;1.14;86.55;97621.16;1716654;83;25815;-74
2022/11/24 00:18:54;;;;;;;27.30;13.40;;;;;;;1.18;86.77;97623.55;1716782;83;25819;-73
2022/11/24 00:21:21;;;;;;;26.60;12.90;;;;;;;1.18;86.46;97629.52;1716807;83;27388;-74
2022/11/24 00:23:49;;;;;;;41.28;17.95;;;;;;;1.17;86.64;97632.75;1716789;83;25678;-74
2022/11/24 00:26:20;;;;;;;43.25;18.62;;;;;;;1.16;86.74;97639.23;1716702;83;25663;-74
2022/11/24 00:28:49;;;;;;;41.75;17.25;;;;;;;1.19;86.72;97638.69;1717060;82;25583;-74
2022/11/24 00:31:22;;;;;;;44.30;18.90;;;;;;;1.27;87.04;97643.23;1716679;83;25583;-74
2022/11/24 00:33:52;;;;;;;46.55;21.52;;;;;;;1.33;86.59;97645.64;1716711;83;27468;-73
2022/11/24 00:36:21;;;;;;;40.65;20.30;;;;;;;1.36;86.57;97656.41;1716690;83;25700;-74
2022/11/24 00:38:54;;;;;;;34.95;16.02;;;;;;;1.44;86.62;97657.73;1716759;83;25473;-74
2022/11/24 00:41:21;;;;;;;34.25;16.20;;;;;;;1.47;86.07;97659.31;1716782;83;26558;-74
2022/11/24 00:43:48;;;;;;;34.48;16.52;;;;;;;1.55;86.46;97659.83;1716680;83;25739;-75
2022/11/24 00:46:14;;;;;;;31.77;14.38;;;;;;;1.70;86.56;97668.38;1716367;83;27398;-75
2022/11/24 00:48:41;;;;;;;34.13;16.37;;;;;;;1.68;85.62;97668.66;1716890;82;25596;-75
2022/11/24 00:51:11;;;;;;;31.62;15.63;;;;;;;1.63;86.00;97670.03;1732525;82;25606;-75
2022/11/24 00:53:37;;;;;;;31.85;16.48;;;;;;;1.64;85.81;97663.53;1732290;82;25743;-75
2022/11/24 00:56:05;;;;;;;30.55;15.80;;;;;;;1.70;86.30;97662.41;1731911;82;25683;-74
2022/11/24 00:58:32;;;;;;;35.10;17.70;;;;;;;1.74;86.15;97667.55;1732372;81;27328;-75
2022/11/24 01:01:06;;;;;;;39.25;17.27;;;;;;;1.79;85.92;97679.39;1732227;82;25690;-75
2022/11/24 01:03:34;;;;;;;36.03;17.20;;;;;;;1.83;86.05;97675.86;1731184;82;25626;-75
2022/11/24 01:06:13;;;;;;;36.90;17.95;;;;;;;1.86;85.87;97677.18;1731882;82;25742;-74
2022/11/24 01:08:40;;;;;;;41.50;17.32;;;;;;;1.84;85.29;97672.05;1732556;81;25598;-75
2022/11/24 01:11:10;;;;;;;43.50;19.20;;;;;;;1.81;85.15;97675.87;1731980;82;27414;-75
2022/11/24 01:13:37;;;;;;;41.27;18.77;;;;;;;1.84;85.71;97676.11;1732436;81;25631;-75
2022/11/24 01:16:04;;;;;;;42.13;18.50;;;;;;;1.90;85.51;97677.44;1731987;82;25775;-74
2022/11/24 01:18:31;;;;;;;34.73;16.62;;;;;;;1.88;85.16;97684.47;1732134;82;25795;-75
2022/11/24 01:20:58;;;;;;;41.23;19.00;;;;;;;1.80;85.06;97680.47;1732433;82;25693;-76
2022/11/24 01:23:25;;;;;;;42.03;18.25;;;;;;;1.85;85.81;97680.98;1710992;82;27403;-76
2022/11/24 01:25:51;;;;;;;38.17;17.57;;;;;;;1.90;85.58;97680.92;1732042;82;25646;-76
2022/11/24 01:28:18;;;;;;;45.92;20.55;;;;;;;1.90;85.36;97678.78;1732223;82;25723;-75
2022/11/24 01:30:46;;;;;;;46.42;20.92;;;;;;;1.85;85.40;97675.58;1732180;82;25940;-75
2022/11/24 01:33:12;;;;;;;47.78;20.55;;;;;;;1.85;85.55;97681.80;1731928;82;25445;-76
2022/11/24 01:35:39;;;;;;;43.17;19.95;;;;;;;1.81;85.15;97682.08;1732017;81;27328;-73
2022/11/24 01:38:05;;;;;;;44.60;18.85;;;;;;;1.82;85.39;97681.00;1732172;82;25626;-75
2022/11/24 01:40:31;;;;;;;39.95;17.65;;;;;;;1.80;85.51;97680.47;1732190;82;25735;-76
2022/11/24 01:42:58;;;;;;;42.23;18.12;;;;;;;1.83;85.28;97679.91;1732274;81;25731;-76
2022/11/24 01:45:35;;;;;;;36.05;16.48;;;;;;;1.83;85.59;97685.31;1732393;82;25598;-76
2022/11/24 01:48:05;;;;;;;34.85;15.98;;;;;;;1.85;85.27;97684.50;1732180;82;27393;-75
2022/11/24 01:50:34;;;;;;;38.10;16.57;;;;;;;1.85;85.12;97689.91;1731904;81;25425;-76
2022/11/24 01:53:01;;;;;;;39.65;17.60;;;;;;;1.72;84.78;97686.45;1731872;82;25667;-76
2022/11/24 01:55:32;;;;;;;36.33;17.37;;;;;;;1.74;85.55;97688.34;1731929;81;25734;-76
2022/11/24 01:58:07;;;;;;;38.63;18.23;;;;;;;1.78;85.37;97694.78;1732282;81;25591;-76
2022/11/24 02:00:36;;;;;;;34.35;15.48;;;;;;;1.82;85.58;97693.16;1732176;82;27499;-75
2022/11/24 02:03:03;;;;;;;43.35;19.55;;;;;;;1.74;85.02;97694.55;1731925;81;25617;-75
2022/11/24 02:05:50;;;;;;;44.53;20.05;;;;;;;1.70;85.12;97689.42;1731901;81;25721;-75
2022/11/24 02:08:31;;;;;;;41.88;19.90;;;;;;;1.71;85.51;97691.59;1730318;82;26740;-76
2022/11/24 02:11:00;;;;;;;40.12;18.07;;;;;;;1.78;85.35;97689.38;1649395;87;25576;-75
2022/11/24 02:13:26;;;;;;;40.48;18.52;;;;;;;1.80;85.39;97690.45;1649661;87;27476;-76
2022/11/24 02:15:53;;;;;;;40.00;17.55;;;;;;;1.87;85.39;97690.94;1649493;87;25748;-76
2022/11/24 02:18:20;;;;;;;38.75;17.67;;;;;;;1.88;85.18;97688.52;1649232;87;25735;-76
2022/11/24 02:20:46;;;;;;;32.63;15.95;;;;;;;1.99;85.34;97689.27;1649647;87;25877;-76
2022/11/24 02:23:27;;;;;;;38.45;17.15;;;;;;;1.98;84.45;97693.03;1649480;87;25490;-76
2022/11/24 02:26:08;;;;;;;36.75;17.32;;;;;;;1.96;85.11;97695.23;1649799;87;28048;-76
2022/11/24 02:28:35;;;;;;;39.98;17.87;;;;;;;1.95;84.61;97690.36;1630032;87;25897;-77
2022/11/24 02:31:03;;;;;;;37.67;17.95;;;;;;;1.93;85.03;97699.84;1649564;87;25687;-76
2022/11/24 02:33:32;;;;;;;41.00;18.52;;;;;;;1.94;85.18;97688.76;1649310;87;26782;-76
2022/11/24 02:35:59;;;;;;;46.37;20.27;;;;;;;1.92;85.01;97693.63;1649341;87;25742;-76
2022/11/24 02:38:34;;;;;;;44.18;20.32;;;;;;;1.90;84.97;97692.30;1649331;87;27433;-76
2022/11/24 02:41:07;;;;;;;49.38;21.85;;;;;;;1.88;85.15;97690.66;1649542;87;25780;-73
2022/11/24 02:43:42;;;;;;;43.78;20.80;;;;;;;1.89;84.99;97688.78;1649529;87;25740;-77
2022/11/24 02:46:09;;;;;;;40.58;18.82;;;;;;;1.87;84.99;97688.24;1649754;87;25747;-75
2022/11/24 02:48:38;;;;;;;38.38;18.60;;;;;;;1.87;85.29;97686.89;1702839;82;25601;-76
2022/11/24 02:51:05;;;;;;;39.20;18.70;;;;;;;1.93;85.39;97693.88;1731326;82;27459;-77
2022/11/24 02:53:32;;;;;;;43.33;19.23;;;;;;;1.94;85.04;97698.21;1731953;82;25618;-77
2022/11/24 02:55:58;;;;;;;46.15;21.50;;;;;;;1.90;84.99;97693.65;1731940;81;25611;-76
2022/11/24 02:58:24;;;;;;;50.60;22.20;;;;;;;1.88;85.19;97696.06;1732490;82;26547;-76
2022/11/24 03:00:53;;;;;;;43.73;19.80;;;;;;;1.85;85.23;97703.41;1731858;81;25452;-76
2022/11/24 03:03:21;;;;;;;45.65;21.55;;;;;;;1.80;85.11;97704.78;1731877;82;28329;-77
2022/11/24 03:05:48;;;;;;;52.05;23.70;;;;;;;1.77;85.22;97703.98;1732150;82;25700;-76
2022/11/24 03:08:14;;;;;;;47.33;21.42;;;;;;;1.79;85.41;97701.83;1732033;82;25670;-76
2022/11/24 03:10:40;;;;;;;47.73;21.50;;;;;;;1.78;85.23;97697.48;1732325;81;25770;-77
2022/11/24 03:13:07;;;;;;;42.58;20.05;;;;;;;1.82;85.47;97701.80;1703873;82;25719;-76
2022/11/24 03:15:34;;;;;;;44.03;20.00;;;;;;;1.85;85.37;97702.06;1714547;82;29593;-75
2022/11/24 03:18:00;;;;;;;38.95;17.52;;;;;;;1.88;85.28;97700.69;1702459;84;25620;-72
2022/11/24 03:20:27;;;;;;;37.00;17.57;;;;;;;1.87;85.12;97699.05;1702496;83;25656;-75
2022/11/24 03:22:53;;;;;;;41.00;18.25;;;;;;;1.88;85.39;97708.79;1702831;83;25710;-75
2022/11/24 03:25:19;;;;;;;39.35;18.52;;;;;;;1.93;85.54;97706.03;1702994;84;25447;-77
2022/11/24 03:27:46;;;;;;;46.42;21.15;;;;;;;1.93;85.30;97703.89;1702667;84;27518;-76
2022/11/24 03:30:14;;;;;;;40.58;19.42;;;;;;;1.92;85.16;97706.31;1703190;84;25694;-77
2022/11/24 03:32:41;;;;;;;42.75;21.12;;;;;;;1.86;85.05;97712.30;1703069;83;25601;-76
2022/11/24 03:35:08;;;;;;;49.40;22.37;;;;;;;1.84;85.15;97705.83;1703116;83;26055;-76
2022/11/24 03:37:35;;;;;;;40.48;19.57;;;;;;;1.86;85.08;97719.06;1699693;84;25532;-76
2022/11/24 03:40:01;;;;;;;44.65;21.45;;;;;;;1.86;85.09;97717.70;1702946;84;27385;-76
2022/11/24 03:42:27;;;;;;;56.37;26.95;;;;;;;1.90;85.20;97715.27;1702857;84;25568;-76
2022/11/24 03:44:53;;;;;;;48.98;23.67;;;;;;;1.94;85.11;97719.02;1702947;84;25596;-73
2022/11/24 03:47:20;;;;;;;43.42;20.40;;;;;;;1.99;85.27;97717.08;1702566;84;25814;-76
2022/11/24 03:49:46;;;;;;;55.83;21.93;;;;;;;2.08;85.28;97720.02;1699703;84;25704;-77
2022/11/24 03:52:12;;;;;;;41.33;19.60;;;;;;;2.08;84.91;97715.96;1678169;85;27749;-76
2022/11/24 03:54:39;;;;;;;49.98;21.30;;;;;;;2.07;84.68;97723.78;1678193;85;25433;-77
2022/11/24 03:57:05;;;;;;;49.25;22.30;;;;;;;2.04;84.69;97717.59;1678021;85;25676;-77
2022/11/24 03:59:31;;;;;;;63.08;25.20;;;;;;;2.05;84.96;97719.76;1677901;85;25479;-76
2022/11/24 04:01:58;;;;;;;58.20;26.10;;;;;;;2.08;84.83;97727.30;1700203;84;25604;-77
2022/11/24 04:04:24;;;;;;;49.60;23.62;;;;;;;2.08;84.59;97730.01;1706083;83;27473;-76
2022/11/24 04:06:51;;;;;;;48.20;22.13;;;;;;;2.05;84.51;97725.98;1705792;84;25487;-75
2022/11/24 04:09:18;;;;;;;44.77;20.88;;;;;;;2.07;84.63;97727.05;1706231;83;25415;-76
2022/11/24 04:14:29;;;;;;;41.88;19.02;;;;;;;2.02;84.36;97731.13;1706344;84;25399;-75
2022/11/24 04:16:55;;;;;;;37.93;17.85;;;;;;;1.96;84.35;97733.85;1706553;84;27534;-76
2022/11/24 04:19:22;;;;;;;40.92;19.23;;;;;;;1.92;84.60;97727.39;1706258;84;25473;-77
2022/11/24 04:21:49;;;;;;;184.40;62.58;;;;;;;1.95;84.64;97737.65;1706228;83;25656;-77
2022/11/24 04:24:15;;;;;;;83.42;32.95;;;;;;;1.96;84.63;97742.52;1706171;83;25782;-77
2022/11/24 04:26:42;;;;;;;50.15;22.95;;;;;;;1.95;84.65;97738.18;1706545;83;25409;-76
2022/11/24 04:29:09;;;;;;;46.48;21.10;;;;;;;1.93;84.65;97737.67;1706199;83;27476;-76
2022/11/24 04:31:36;;;;;;;50.08;22.35;;;;;;;1.89;84.74;97742.81;1706436;84;25632;-76
2022/11/24 04:34:02;;;;;;;136.28;37.45;;;;;;;1.86;84.89;97750.95;1706250;84;25611;-76
2022/11/24 04:36:29;;;;;;;115.28;35.23;;;;;;;1.88;85.13;97746.61;1706174;84;25792;-76
2022/11/24 04:38:55;;;;;;;281.20;62.08;;;;;;;1.92;85.00;97746.84;1706232;83;25691;-76
2022/11/24 04:41:21;;;;;;;85.15;29.37;;;;;;;1.94;84.88;97745.50;1706253;83;27459;-76
2022/11/24 04:43:49;;;;;;;51.95;22.02;;;;;;;1.94;84.61;97754.14;1706086;84;25483;-76
2022/11/24 04:46:16;;;;;;;55.65;22.02;;;;;;;1.92;84.65;97754.42;1706207;84;25663;-76
2022/11/24 04:48:42;;;;;;;69.95;25.72;;;;;;;1.90;84.60;97754.44;1706563;83;25694;-77
2022/11/24 04:51:10;;;;;;;102.02;32.13;;;;;;;1.89;84.90;97756.33;1711742;82;25482;-76
2022/11/24 04:53:37;;;;;;;81.78;28.98;;;;;;;1.92;84.95;97757.66;1717014;83;28302;-73
2022/11/24 04:56:07;;;;;;;59.18;22.98;;;;;;;1.91;84.67;97766.86;1716569;83;25591;-73
2022/11/24 04:58:34;;;;;;;57.25;24.80;;;;;;;1.86;84.80;97769.86;1716890;83;25460;-73
2022/11/24 05:01:00;;;;;;;50.55;22.13;;;;;;;1.83;84.77;97776.34;1716444;83;27857;-72
2022/11/24 05:03:27;;;;;;;56.33;22.58;;;;;;;1.84;84.78;97777.42;1716722;83;25674;-73
2022/11/24 05:05:57;;;;;;;111.57;32.80;;;;;;;1.84;84.80;97778.77;1716638;83;27325;-73
2022/11/24 05:08:23;;;;;;;93.95;29.52;;;;;;;1.88;84.81;97782.53;1716291;83;25473;-73
2022/11/24 05:10:50;;;;;;;51.53;21.00;;;;;;;1.90;84.74;97779.55;1716920;83;25612;-73
2022/11/24 05:13:16;;;;;;;71.02;25.12;;;;;;;1.94;84.73;97787.38;1716238;83;25761;-74
2022/11/24 05:15:43;;;;;;;62.27;24.12;;;;;;;1.96;84.61;97781.70;1716938;83;25791;-73
2022/11/24 05:18:14;;;;;;;39.35;19.05;;;;;;;1.97;84.49;97796.82;1716363;83;27421;-73
2022/11/24 05:20:43;;;;;;;77.75;27.37;;;;;;;1.94;84.50;97793.32;1716462;83;25489;-73
2022/11/24 05:23:09;;;;;;;87.88;30.88;;;;;;;1.92;84.64;97790.89;1716179;83;25755;-70
2022/11/24 05:25:36;;;;;;;107.67;31.33;;;;;;;1.91;84.78;97785.23;1716589;83;25790;-73
2022/11/24 05:28:11;;;;;;;98.10;32.70;;;;;;;1.91;84.71;97785.77;1716415;83;25638;-73
2022/11/24 05:30:47;;;;;;;66.07;26.45;;;;;;;1.89;84.70;97786.05;1716176;83;26733;-73
2022/11/24 05:33:18;;;;;;;52.60;22.35;;;;;;;1.87;84.48;97783.63;1716389;83;25580;-73
2022/11/24 05:35:47;;;;;;;70.10;26.95;;;;;;;1.83;84.63;97782.57;1716907;83;25596;-73
2022/11/24 05:38:16;;;;;;;75.28;26.82;;;;;;;1.82;84.64;97783.66;1716437;83;25808;-73
2022/11/24 05:40:44;;;;;;;94.22;31.48;;;;;;;1.86;84.80;97785.25;1716617;83;25726;-71
2022/11/24 05:43:15;;;;;;;125.67;39.08;;;;;;;1.86;84.63;97790.13;1716727;83;27860;-73
2022/11/24 05:45:42;;;;;;;114.72;37.17;;;;;;;1.88;84.67;97793.33;1716566;83;25427;-73
2022/11/24 05:48:13;;;;;;;71.70;27.32;;;;;;;1.89;84.72;97795.50;1716521;83;25461;-73
2022/11/24 05:50:40;;;;;;;53.30;24.07;;;;;;;1.87;84.46;97803.07;1716891;82;25770;-73
2022/11/24 05:53:10;;;;;;;57.83;23.85;;;;;;;1.85;84.59;97802.03;1716493;83;25469;-73
2022/11/24 05:55:37;;;;;;;121.43;40.10;;;;;;;1.84;84.77;97793.63;1716969;83;27844;-73
2022/11/24 05:58:07;;;;;;;189.87;52.62;;;;;;;1.84;85.00;97800.39;1716233;83;25509;-72
2022/11/24 06:00:35;;;;;;;91.50;32.08;;;;;;;1.85;84.91;97810.66;1716749;83;25516;-73
2022/11/24 06:03:02;;;;;;;159.15;46.68;;;;;;;1.83;84.98;97798.78;1716430;82;25828;-74
2022/11/24 06:05:29;;;;;;;94.97;34.80;;;;;;;1.86;84.95;97809.56;1716744;83;25441;-73
2022/11/24 06:07:58;;;;;;;144.90;44.75;;;;;;;1.87;84.80;97821.45;1716355;83;27520;-73
2022/11/24 06:10:24;;;;;;;108.15;38.60;;;;;;;1.88;84.75;97824.97;1716329;83;25448;-73
2022/11/24 06:12:51;;;;;;;77.60;30.20;;;;;;;1.88;85.01;97831.72;1716297;83;25770;-73
2022/11/24 06:15:18;;;;;;;75.95;28.87;;;;;;;1.91;84.86;97837.92;1716258;83;25734;-73
2022/11/24 06:17:55;;;;;;;62.90;26.37;;;;;;;1.88;84.77;97836.56;1716344;82;25677;-70
2022/11/24 06:20:24;;;;;;;60.95;25.48;;;;;;;1.87;85.01;97842.25;1716515;83;27380;-72
2022/11/24 06:22:50;;;;;;;77.00;26.42;;;;;;;1.88;85.08;97849.29;1716494;83;25622;-73
2022/11/24 06:25:17;;;;;;;60.58;24.55;;;;;;;1.84;84.89;97849.58;1716289;83;25481;-75
2022/11/24 06:27:44;;;;;;;65.55;25.82;;;;;;;1.82;85.14;97854.44;1716414;83;26908;-74
2022/11/24 06:30:13;;;;;;;71.17;24.92;;;;;;;1.80;85.10;97845.27;1716510;83;25750;-72
2022/11/24 06:32:43;;;;;;;70.83;25.10;;;;;;;1.81;85.09;97849.57;1704588;83;27471;-74
2022/11/24 06:35:08;;;;;;;68.07;25.88;;;;;;;1.83;84.91;97857.40;1715857;83;25791;-74
2022/11/24 06:37:36;;;;;;;68.05;26.57;;;;;;;1.83;85.03;97857.40;1716531;83;25732;-73
2022/11/24 06:40:03;;;;;;;65.12;25.25;;;;;;;1.86;84.95;97858.20;1716340;83;25661;-73
2022/11/24 06:42:29;;;;;;;74.17;27.32;;;;;;;1.88;84.75;97862.80;1716309;83;25401;-75
2022/11/24 06:44:55;;;;;;;70.42;24.77;;;;;;;1.87;84.61;97863.33;1716514;83;27583;-75
2022/11/24 06:47:22;;;;;;;67.80;26.07;;;;;;;1.87;84.65;97862.51;1716317;83;26007;-75
2022/11/24 06:49:48;;;;;;;77.37;26.35;;;;;;;1.86;84.62;97876.58;1716592;83;25611;-74
2022/11/24 06:52:15;;;;;;;84.50;26.73;;;;;;;1.80;84.62;97866.87;1716091;82;25807;-75
2022/11/24 06:54:42;;;;;;;74.97;26.57;;;;;;;1.80;84.73;97872.81;1716307;82;25666;-74
2022/11/24 06:57:08;;;;;;;84.70;28.27;;;;;;;1.81;84.80;97873.09;1716416;83;28149;-72
2022/11/24 06:59:35;;;;;;;84.58;28.00;;;;;;;1.84;84.53;97877.95;1716301;83;25433;-74
2022/11/24 07:02:01;;;;;;;81.20;26.27;;;;;;;1.85;84.62;97880.91;1716224;83;25450;-74
2022/11/24 07:04:29;;;;;;;74.30;25.05;;;;;;;1.86;84.56;97877.94;1716565;83;25802;-74
2022/11/24 07:06:55;;;;;;;79.32;26.68;;;;;;;1.94;84.63;97875.20;1716691;83;25598;-74
2022/11/24 07:09:22;;;;;;;80.90;26.40;;;;;;;1.94;83.82;97883.31;1716841;83;28077;-74
2022/11/24 07:11:48;;;;;;;80.12;25.57;;;;;;;1.95;84.07;97890.33;1716453;83;25434;-72
2022/11/24 07:14:15;;;;;;;80.97;27.52;;;;;;;1.94;83.93;97890.06;1716418;83;25697;-75
2022/11/24 07:16:42;;;;;;;76.00;27.37;;;;;;;1.94;84.10;97886.55;1716628;83;25761;-74
2022/11/24 07:19:09;;;;;;;77.12;27.75;;;;;;;1.95;84.25;97895.73;1716360;83;25485;-74
2022/11/24 07:21:36;;;;;;;77.58;26.52;;;;;;;1.96;84.19;97895.98;1716555;83;27473;-74
2022/11/24 07:24:04;;;;;;;85.12;27.30;;;;;;;1.98;84.20;97897.06;1716187;83;25659;-74
2022/11/24 07:26:35;;;;;;;76.40;26.52;;;;;;;1.95;83.78;97905.19;1716578;83;25765;-74
2022/11/24 07:28:59;;;;;;;69.97;25.92;;;;;;;2.00;84.06;97898.95;1715825;82;25513;-74
2022/11/24 07:31:26;;;;;;;72.45;26.17;;;;;;;2.00;83.97;97899.78;1716255;83;25473;-74
2022/11/24 07:33:54;;;;;;;69.77;25.43;;;;;;;2.04;83.84;97905.98;1716521;83;27513;-74
2022/11/24 07:36:43;;;;;;;67.45;25.17;;;;;;;2.09;84.00;97905.41;1716539;83;25647;-74
2022/11/24 07:39:13;;;;;;;66.25;22.65;;;;;;;2.12;83.79;97906.21;1715654;83;25639;-73
2022/11/24 07:41:39;;;;;;;64.30;25.95;;;;;;;2.06;83.36;97907.84;1716819;83;25849;-72
2022/11/24 07:44:07;;;;;;;71.42;25.97;;;;;;;2.05;83.83;97909.77;1716407;83;25682;-73
2022/11/24 07:46:33;;;;;;;72.85;26.42;;;;;;;2.00;83.62;97909.77;1716527;83;27546;-73
2022/11/24 07:49:00;;;;;;;64.80;24.65;;;;;;;1.97;83.83;97914.38;1716357;83;25718;-72
2022/11/24 07:51:26;;;;;;;73.42;27.48;;;;;;;1.92;83.75;97913.02;1716535;82;25694;-73
2022/11/24 07:53:52;;;;;;;66.33;27.15;;;;;;;1.93;84.15;97910.61;1716498;83;25838;-73
2022/11/24 07:56:19;;;;;;;73.45;26.57;;;;;;;1.96;83.94;97918.17;1716824;83;25730;-73
2022/11/24 07:58:45;;;;;;;66.00;26.50;;;;;;;1.99;83.97;97914.91;1716678;83;27407;-72
2022/11/24 08:01:15;;;;;;;67.85;27.42;;;;;;;1.99;83.92;97914.35;1716192;83;25625;-73
2022/11/24 08:03:43;;;;;;;68.92;25.40;;;;;;;1.98;83.80;97919.50;1716703;83;25469;-71
2022/11/24 08:06:10;;;;;;;68.57;27.48;;;;;;;2.00;84.11;97917.88;1716768;83;25750;-73
2022/11/24 08:08:36;;;;;;;62.65;24.87;;;;;;;2.05;84.28;97930.03;1716576;83;25489;-73
2022/11/24 08:11:09;;;;;;;59.63;24.05;;;;;;;2.03;84.02;97929.48;1716351;83;27472;-72
2022/11/24 08:13:36;;;;;;;58.68;23.75;;;;;;;2.00;84.04;97931.39;1716564;83;25727;-73
2022/11/24 08:16:09;;;;;;;58.23;24.27;;;;;;;1.96;84.11;97935.73;1716692;83;25691;-72
2022/11/24 08:18:36;;;;;;;55.63;24.18;;;;;;;1.95;84.24;97938.14;1716653;83;25769;-73
2022/11/24 08:21:04;;;;;;;53.00;22.52;;;;;;;1.96;84.31;97941.14;1716809;83;25611;-72
2022/11/24 08:23:31;;;;;;;59.38;23.35;;;;;;;1.93;84.09;97942.47;1716515;83;27546;-71
2022/11/24 08:26:03;;;;;;;55.58;20.65;;;;;;;1.95;84.04;97946.25;1716332;83;25504;-71
2022/11/24 08:28:27;;;;;;;53.85;21.52;;;;;;;1.96;84.16;97952.73;1703909;83;25705;-73
2022/11/24 08:31:10;;;;;;;65.00;24.87;;;;;;;1.97;84.11;97958.96;1716490;83;25735;-73
2022/11/24 08:33:37;;;;;;;56.42;23.32;;;;;;;2.07;84.42;97954.08;1716407;83;25476;-72
2022/11/24 08:36:07;;;;;;;57.85;23.10;;;;;;;2.10;84.26;97952.97;1716493;83;28368;-73
2022/11/24 08:38:34;;;;;;;63.13;27.45;;;;;;;2.11;84.29;97959.20;1716578;82;25449;-73
2022/11/24 08:41:04;;;;;;;55.92;24.12;;;;;;;2.17;84.30;97964.03;1716616;83;25671;-72
2022/11/24 08:43:31;;;;;;;56.18;22.30;;;;;;;2.13;84.18;97960.53;1716665;83;26388;-72
2022/11/24 08:46:02;;;;;;;54.48;22.05;;;;;;;2.05;84.39;97963.81;1716450;83;25669;-73
2022/11/24 08:48:30;;;;;;;56.75;24.07;;;;;;;2.04;84.62;97958.13;1716660;83;27440;-73
2022/11/24 08:50:57;;;;;;;56.70;22.80;;;;;;;2.00;84.75;97965.17;1716514;83;25706;-73
2022/11/24 08:53:24;;;;;;;53.95;22.98;;;;;;;2.02;85.02;97971.13;1716581;82;25473;-73
2022/11/24 08:55:51;;;;;;;53.87;22.42;;;;;;;2.02;84.82;97968.95;1716365;83;25747;-71
2022/11/24 08:58:18;;;;;;;58.00;23.87;;;;;;;2.02;85.07;97971.66;1716400;83;25492;-74
2022/11/24 09:00:44;;;;;;;55.10;22.42;;;;;;;2.07;85.06;97967.03;1716650;83;27583;-72
2022/11/24 09:03:12;;;;;;;59.42;24.70;;;;;;;2.14;85.07;97970.81;1716378;83;25631;-70
2022/11/24 09:05:38;;;;;;;52.10;23.27;;;;;;;2.17;84.86;97972.14;1716774;83;25587;-73
2022/11/24 09:08:05;;;;;;;50.15;21.25;;;;;;;2.24;84.94;97979.41;1716431;83;25767;-75
2022/11/24 09:10:31;;;;;;;51.65;20.77;;;;;;;2.25;84.81;97971.59;1716554;82;25671;-72
2022/11/24 09:12:58;;;;;;;49.67;21.23;;;;;;;2.24;84.70;97972.66;1716310;83;27500;-76
2022/11/24 09:15:24;;;;;;;54.38;22.42;;;;;;;2.23;84.60;97969.16;1716303;83;25501;-78
2022/11/24 09:17:51;;;;;;;59.90;23.05;;;;;;;2.22;84.65;97975.64;1716999;83;25460;-78
2022/11/24 09:20:18;;;;;;;54.20;22.42;;;;;;;2.22;84.56;97980.25;1716294;83;25766;-76
2022/11/24 09:22:46;;;;;;;59.27;23.38;;;;;;;2.21;84.69;97978.61;1716667;83;25753;-79
2022/11/24 09:25:13;;;;;;;62.15;23.98;;;;;;;2.25;85.06;97980.49;1716396;83;27477;-79
2022/11/24 09:27:40;;;;;;;58.85;23.62;;;;;;;2.29;84.89;97975.35;1716651;83;25597;-79
2022/11/24 09:30:09;;;;;;;56.88;23.20;;;;;;;2.30;84.48;97978.88;1716573;83;25415;-78
2022/11/24 09:32:36;;;;;;;60.58;23.60;;;;;;;2.31;84.58;97976.43;1716585;83;25632;-79
2022/11/24 09:35:03;;;;;;;58.95;23.38;;;;;;;2.37;84.84;97980.73;1716385;83;25659;-80
2022/11/24 09:37:32;;;;;;;57.03;23.75;;;;;;;2.40;84.65;97978.02;1716458;83;27469;-76
2022/11/24 09:39:58;;;;;;;58.05;22.10;;;;;;;2.37;84.31;97981.56;1716626;83;25473;-78
2022/11/24 09:42:45;;;;;;;58.30;22.93;;;;;;;2.35;84.34;97981.55;1716775;83;25616;-81
2022/11/24 09:45:17;;;;;;;55.55;23.30;;;;;;;2.30;84.68;97988.34;1668146;85;25779;-81
2022/11/24 09:48:13;;;;;;;54.30;23.42;;;;;;;2.26;85.02;97985.37;1668142;86;25522;-84
2022/11/24 09:50:39;;;;;;;59.75;23.05;;;;;;;2.25;84.97;97983.76;1668489;86;27386;-86
2022/11/24 09:53:20;;;;;;;65.28;26.48;;;;;;;2.19;84.96;97981.59;1668407;85;25750;-74
2022/11/24 09:55:53;;;;;;;63.70;27.00;;;;;;;2.18;84.94;97985.92;1668251;86;25680;-76
2022/11/24 09:58:39;;;;;;;58.78;25.17;;;;;;;2.16;84.75;97986.20;1668610;85;25825;-76
2022/11/24 10:01:16;;;;;;;60.67;25.52;;;;;;;2.13;84.80;97988.13;1668481;85;25554;-76
2022/11/24 10:03:47;;;;;;;64.75;27.35;;;;;;;2.17;85.12;97989.19;1668595;85;27449;-78
2022/11/24 10:06:33;;;;;;;61.73;28.47;;;;;;;2.20;85.16;97988.64;1668720;86;25753;-80
2022/11/24 10:09:35;;;;;;;63.17;26.17;;;;;;;2.23;85.10;97989.44;1668072;86;25568;-83
2022/11/24 10:12:34;;;;;;;65.32;27.27;;;;;;;2.24;85.32;97991.58;1668279;85;26784;-80
2022/11/24 10:15:18;;;;;;;71.10;30.37;;;;;;;2.17;85.19;97991.89;1668795;85;25678;-77
2022/11/24 10:18:13;;;;;;;72.87;29.92;;;;;;;2.14;85.84;97984.33;1668504;85;28464;-76
2022/11/24 10:21:03;;;;;;;64.58;27.52;;;;;;;2.11;85.99;97982.99;1682544;83;25895;-76
2022/11/24 10:24:04;;;;;;;64.20;27.15;;;;;;;2.12;86.08;97983.25;1654953;86;25686;-75
2022/11/24 10:26:37;;;;;;;69.55;27.40;;;;;;;2.15;86.19;97990.52;1612447;89;26553;-75
2022/11/24 10:29:21;;;;;;;62.45;26.90;;;;;;;2.12;86.47;97986.48;1575684;90;25841;-76
2022/11/24 10:31:51;;;;;;;68.97;27.30;;;;;;;2.15;86.45;97988.64;1509758;95;26867;-76
2022/11/24 10:34:34;;;;;;;77.53;31.15;;;;;;;2.16;86.47;97988.90;1502400;95;25885;-76
2022/11/24 10:37:11;;;;;;;72.92;30.65;;;;;;;2.17;86.33;97986.48;1502089;95;25902;-76
2022/11/24 10:39:51;;;;;;;74.92;29.05;;;;;;;2.19;86.42;97985.64;1501196;95;25804;-78
2022/11/24 10:42:28;;;;;;;69.60;26.42;;;;;;;2.19;86.31;97991.05;1502404;95;25508;-77
2022/11/24 10:45:21;;;;;;;59.85;25.32;;;;;;;2.15;86.31;97994.05;1502187;95;27368;-76
2022/11/24 10:47:48;;;;;;;62.83;25.82;;;;;;;2.09;86.34;97985.68;1503673;95;26191;-74
2022/11/24 10:50:29;;;;;;;62.88;24.32;;;;;;;2.09;86.81;97994.61;1503639;95;25741;-75
2022/11/24 10:53:17;;;;;;;63.40;26.80;;;;;;;2.06;86.82;97993.80;1503798;95;25771;-75
2022/11/24 10:55:59;;;;;;;70.40;27.82;;;;;;;2.05;87.22;97996.25;1503470;95;25768;-74
2022/11/24 10:58:33;;;;;;;67.80;27.87;;;;;;;2.08;87.30;97998.94;1503586;95;28074;-74
2022/11/24 11:01:22;;;;;;;68.02;29.05;;;;;;;2.11;87.32;98002.45;1503020;95;25793;-71
2022/11/24 11:03:56;;;;;;;71.47;30.17;;;;;;;2.11;87.36;97995.16;1528354;92;25814;-70
2022/11/24 11:06:27;;;;;;;70.83;28.15;;;;;;;2.16;87.36;98005.68;1558302;92;25863;-70
2022/11/24 11:09:09;;;;;;;;;;;;;;;2.17;87.71;98001.88;1606790;86;25743;-70
2022/11/24 11:11:38;;;;;;;68.90;27.00;;;;;;;2.19;87.44;98008.62;1660816;86;27485;-70
2022/11/24 11:14:12;;;;;;;71.37;30.57;;;;;;;2.25;87.65;98007.53;1644134;87;25980;-70
2022/11/24 11:16:51;;;;;;;60.38;27.17;;;;;;;2.28;87.44;98005.38;1623842;87;25649;-70
2022/11/24 11:19:39;;;;;;;67.70;27.93;;;;;;;2.36;87.42;98006.17;1644476;86;26055;-70
2022/11/24 11:22:20;;;;;;;62.53;26.42;;;;;;;2.40;87.07;97999.12;1644300;86;25650;-71
2022/11/24 11:24:47;;;;;;;65.72;28.60;;;;;;;2.40;87.04;98002.35;1643941;87;27478;-71
2022/11/24 11:27:23;;;;;;;66.50;28.83;;;;;;;2.38;87.27;98002.09;1623347;87;25685;-70
2022/11/24 11:29:51;;;;;;;65.75;28.47;;;;;;;2.44;87.64;98001.53;1644684;87;25645;-70
2022/11/24 11:32:25;;;;;;;66.05;30.82;;;;;;;2.48;87.76;97996.39;1644153;87;25772;-71
2022/11/24 11:34:54;;;;;;;70.72;30.10;;;;;;;2.53;87.90;97998.27;1643904;86;25433;-71
2022/11/24 11:37:25;;;;;;;73.12;30.50;;;;;;;2.57;87.58;98005.55;1644425;87;28108;-71
2022/11/24 11:39:54;;;;;;;76.85;35.75;;;;;;;2.63;87.26;98009.03;1643648;87;25657;-71